Aviation Digital Data Service (ADDS)

Output produced by TAFs form (0613 UTC 31 October 2014)
found at http://aviationweather.gov/adds/tafs/
 
KPUB 310522Z 3106/0106 VRB06KT P6SM FEW200 
     FM311900 13009KT P6SM FEW150 SCT200 
     FM010200 06006KT P6SM SCT200